Time;durP1;ratioP1;P1;durP2;ratioP2;P2;SDS_P1;SDS_P2;PMS_P1;PMS_P2;Temp;Humidity;BMP_temperature;BMP_pressure;BME280_temperature;BME280_humidity;BME280_pressure;Samples;Min_cycle;Max_cycle;Signal;HPM_P1;HPM_P2
2023/06/16 00:01:05;;;;;;;;;;;;;;;25.16;53.69;101753.28;5138881;28;19945;-64
2023/06/16 00:03:33;;;;;;;;;;;;;;;25.18;53.87;101753.84;5142247;28;19920;-63
2023/06/16 00:06:03;;;;;;;;;;;;;;;25.10;53.92;101746.16;5140808;28;19923;-63
2023/06/16 00:08:30;;;;;;;;;;;;;;;24.95;54.00;101745.06;5145060;27;19947;-64
2023/06/16 00:10:56;;;;;;;;;;;;;;;25.02;54.00;101742.03;5140517;27;19919;-64
2023/06/16 00:13:21;;;;;;;;;;;;;;;24.96;54.41;101740.41;5142093;27;19947;-63
2023/06/16 00:15:47;;;;;;;;;;;;;;;24.91;54.14;101736.56;5137249;28;20009;-64
2023/06/16 00:18:12;;;;;;;;;;;;;;;24.91;53.89;101735.72;5135917;28;19954;-64
2023/06/16 00:20:38;;;;;;;;;;;;;;;24.89;53.73;101735.19;5145264;27;19912;-63
2023/06/16 00:23:06;;;;;;;;;;;;;;;24.85;54.04;101734.06;5143516;27;19923;-63
2023/06/16 00:25:32;;;;;;;;;;;;;;;24.86;53.64;101742.03;5149837;27;19986;-63
2023/06/16 00:27:58;;;;;;;;;;;;;;;24.82;54.28;101742.84;5147204;27;19915;-63
2023/06/16 00:30:24;;;;;;;;;;;;;;;24.66;54.24;101745.50;5148399;27;19916;-63
2023/06/16 00:32:50;;;;;;;;;;;;;;;24.74;54.24;101744.16;5148689;27;19915;-63
2023/06/16 00:35:15;;;;;;;;;;;;;;;24.62;54.48;101739.75;5146637;27;19987;-63
2023/06/16 00:37:41;;;;;;;;;;;;;;;24.63;54.27;101737.81;5148752;27;19923;-64
2023/06/16 00:40:07;;;;;;;;;;;;;;;24.60;54.54;101743.84;5142667;27;19972;-63
2023/06/16 00:42:33;;;;;;;;;;;;;;;24.51;54.40;101745.47;5146837;27;20050;-62
2023/06/16 00:44:59;;;;;;;;;;;;;;;24.51;54.17;101750.94;5144790;27;19941;-64
2023/06/16 00:47:24;;;;;;;;;;;;;;;24.48;54.54;101741.34;5147558;27;19958;-63
2023/06/16 00:49:50;;;;;;;;;;;;;;;24.49;54.44;101742.97;5143312;27;19919;-63
2023/06/16 00:52:15;;;;;;;;;;;;;;;24.48;53.97;101739.44;5148326;27;19916;-63
2023/06/16 00:54:42;;;;;;;;;;;;;;;24.42;54.14;101737.75;5144070;27;19916;-63
2023/06/16 00:57:08;;;;;;;;;;;;;;;24.44;54.01;101730.09;5139328;27;19911;-63
2023/06/16 00:59:34;;;;;;;;;;;;;;;24.34;54.09;101735.53;5145243;27;19991;-62
2023/06/16 01:02:01;;;;;;;;;;;;;;;24.34;53.60;101730.91;5144669;27;19920;-63
2023/06/16 01:04:27;;;;;;;;;;;;;;;24.30;53.82;101729.78;5142526;27;19955;-63
2023/06/16 01:07:10;;;;;;;;;;;;;;;24.23;53.76;101737.41;5148298;27;19946;-63
2023/06/16 01:09:52;;;;;;;;;;;;;;;24.22;53.58;101726.72;5143145;27;19922;-64
2023/06/16 01:12:21;;;;;;;;;;;;;;;24.16;53.88;101729.44;5144424;27;19927;-63
2023/06/16 01:14:49;;;;;;;;;;;;;;;24.15;53.87;101732.47;5145282;27;19915;-63
2023/06/16 01:17:16;;;;;;;;;;;;;;;24.27;53.57;101724.06;5143606;27;19916;-63
2023/06/16 01:19:49;;;;;;;;;;;;;;;24.24;53.84;101719.94;5144630;27;19946;-62
2023/06/16 01:22:28;;;;;;;;;;;;;;;24.19;53.99;101734.38;5140657;27;19924;-62
2023/06/16 01:24:55;;;;;;;;;;;;;;;24.12;54.14;101728.34;5138156;27;19919;-64
2023/06/16 01:27:22;;;;;;;;;;;;;;;24.10;54.29;101725.06;5142092;27;19919;-64
2023/06/16 01:29:49;;;;;;;;;;;;;;;23.93;54.33;101730.69;5144427;27;19915;-63
2023/06/16 01:32:16;;;;;;;;;;;;;;;23.89;54.64;101724.91;5144385;27;19973;-63
2023/06/16 01:34:42;;;;;;;;;;;;;;;23.85;54.68;101729.25;5145669;27;19922;-63
2023/06/16 01:37:10;;;;;;;;;;;;;;;23.75;54.87;101724.56;5140937;27;19916;-63
2023/06/16 01:39:36;;;;;;;;;;;;;;;23.81;54.34;101725.44;5146078;27;19972;-63
2023/06/16 01:42:02;;;;;;;;;;;;;;;23.89;54.02;101729.56;5143560;27;19989;-63
2023/06/16 01:44:27;;;;;;;;;;;;;;;23.87;54.25;101728.97;5146603;27;19996;-62
2023/06/16 01:46:54;;;;;;;;;;;;;;;23.78;54.25;101731.41;5146863;27;19915;-63
2023/06/16 01:49:19;;;;;;;;;;;;;;;23.73;54.62;101731.34;5146074;27;19916;-63
2023/06/16 01:51:45;;;;;;;;;;;;;;;23.76;54.55;101722.66;5140686;27;19993;-63
2023/06/16 01:54:10;;;;;;;;;;;;;;;23.72;54.70;101725.09;5146201;27;19975;-63
2023/06/16 01:56:36;;;;;;;;;;;;;;;23.72;54.46;101729.72;5145554;27;20004;-63
2023/06/16 01:59:01;;;;;;;;;;;;;;;23.69;54.65;101722.06;5141530;27;19916;-63
2023/06/16 02:01:33;;;;;;;;;;;;;;;23.58;54.76;101723.88;5141183;27;19961;-63
2023/06/16 02:04:08;;;;;;;;;;;;;;;23.50;54.84;101727.91;5144479;27;19962;-63
2023/06/16 02:06:39;;;;;;;;;;;;;;;23.38;55.65;101727.31;5144192;27;19988;-63
2023/06/16 02:09:09;;;;;;;;;;;;;;;23.41;55.39;101724.88;5143819;27;20726;-63
2023/06/16 02:11:35;;;;;;;;;;;;;;;23.35;55.62;101734.09;5141855;27;19904;-63
2023/06/16 02:14:02;;;;;;;;;;;;;;;23.13;55.85;101729.50;5144889;27;19915;-64
2023/06/16 02:16:27;;;;;;;;;;;;;;;23.38;55.65;101724.56;5142898;27;19992;-63
2023/06/16 02:18:56;;;;;;;;;;;;;;;23.31;55.66;101731.06;5142027;27;19920;-63
2023/06/16 02:21:21;;;;;;;;;;;;;;;23.45;55.07;101727.88;5138283;27;19987;-63
2023/06/16 02:23:50;;;;;;;;;;;;;;;23.55;54.78;101732.59;5144684;27;19915;-64
2023/06/16 02:26:17;;;;;;;;;;;;;;;23.32;55.33;101730.00;5142292;27;19937;-63
2023/06/16 02:28:43;;;;;;;;;;;;;;;23.16;56.03;101734.44;5138740;27;19915;-63
2023/06/16 02:31:10;;;;;;;;;;;;;;;23.10;56.34;101729.22;5136322;27;19934;-63
2023/06/16 02:33:35;;;;;;;;;;;;;;;23.20;56.33;101723.84;5135605;27;19940;-63
2023/06/16 02:36:01;;;;;;;;;;;;;;;23.26;56.25;101728.28;5136484;27;19950;-63
2023/06/16 02:38:26;;;;;;;;;;;;;;;23.16;56.58;101726.25;5136933;27;19920;-63
2023/06/16 02:40:51;;;;;;;;;;;;;;;23.18;57.26;101736.91;5142967;27;19923;-63
2023/06/16 02:43:18;;;;;;;;;;;;;;;23.16;57.42;101739.09;5145865;27;19930;-63
2023/06/16 02:45:44;;;;;;;;;;;;;;;23.11;57.44;101728.94;5137681;27;20003;-63
2023/06/16 02:48:10;;;;;;;;;;;;;;;22.97;58.28;101731.28;5140337;27;19928;-63
2023/06/16 02:50:36;;;;;;;;;;;;;;;22.92;58.73;101734.75;5137934;27;19930;-63
2023/06/16 02:53:05;;;;;;;;;;;;;;;22.95;58.59;101727.97;5135673;27;19924;-62
2023/06/16 02:55:31;;;;;;;;;;;;;;;22.87;58.33;101723.00;5136248;27;19937;-63
2023/06/16 02:57:56;;;;;;;;;;;;;;;22.89;58.33;101729.03;5134019;28;19915;-63
2023/06/16 03:00:22;;;;;;;;;;;;;;;22.86;58.16;101719.44;5140147;27;19920;-63
2023/06/16 03:03:07;;;;;;;;;;;;;;;22.80;58.62;101719.63;5138180;27;19940;-64
2023/06/16 03:05:34;;;;;;;;;;;;;;;22.87;58.54;101723.81;5138534;27;19923;-62
2023/06/16 03:08:00;;;;;;;;;;;;;;;22.80;58.20;101723.19;5134207;28;19922;-64
2023/06/16 03:10:26;;;;;;;;;;;;;;;22.88;57.89;101722.72;5137498;27;19947;-62
2023/06/16 03:13:02;;;;;;;;;;;;;;;22.75;58.45;101723.97;5134898;27;20306;-63
2023/06/16 03:15:30;;;;;;;;;;;;;;;22.82;58.01;101725.66;5137404;27;19915;-63
2023/06/16 03:17:56;;;;;;;;;;;;;;;22.59;59.33;101727.59;5139135;28;19947;-63
2023/06/16 03:20:22;;;;;;;;;;;;;;;22.57;59.50;101729.75;5137971;27;19927;-63
2023/06/16 03:22:55;;;;;;;;;;;;;;;22.58;59.48;101729.50;5134866;28;19919;-63
2023/06/16 03:25:21;;;;;;;;;;;;;;;22.55;59.55;101726.47;5117590;28;19983;-63
2023/06/16 03:27:47;;;;;;;;;;;;;;;22.54;60.16;101728.38;5138484;28;19915;-63
2023/06/16 03:30:17;;;;;;;;;;;;;;;22.55;59.92;101734.63;5133443;28;19916;-63
2023/06/16 03:33:03;;;;;;;;;;;;;;;22.68;60.16;101720.63;5133775;28;19934;-63
2023/06/16 03:35:31;;;;;;;;;;;;;;;22.81;59.25;101727.56;5138306;28;19937;-63
2023/06/16 03:37:59;;;;;;;;;;;;;;;22.74;59.42;101724.22;5138827;28;19991;-62
2023/06/16 03:40:26;;;;;;;;;;;;;;;22.63;59.77;101723.31;5129195;28;19947;-62
2023/06/16 03:42:51;;;;;;;;;;;;;;;22.60;59.88;101727.34;5139179;28;19923;-62
2023/06/16 03:45:17;;;;;;;;;;;;;;;22.60;60.19;101721.06;5137461;27;19991;-63
2023/06/16 03:47:43;;;;;;;;;;;;;;;22.57;60.29;101725.13;5142459;27;19923;-62
2023/06/16 03:50:09;;;;;;;;;;;;;;;22.57;60.17;101721.56;5140708;27;19959;-63
2023/06/16 03:52:37;;;;;;;;;;;;;;;22.57;60.54;101721.56;5139633;27;19951;-63
2023/06/16 03:55:03;;;;;;;;;;;;;;;22.57;60.99;101727.03;5146684;27;19915;-63
2023/06/16 03:57:29;;;;;;;;;;;;;;;22.57;60.61;101724.28;5138824;27;19916;-63
2023/06/16 03:59:55;;;;;;;;;;;;;;;22.54;61.46;101725.66;5140930;27;19987;-64
2023/06/16 04:02:20;;;;;;;;;;;;;;;22.53;61.59;101726.72;5143672;27;19920;-63
2023/06/16 04:04:47;;;;;;;;;;;;;;;22.65;61.60;101728.47;5139299;27;19915;-63
2023/06/16 04:07:14;;;;;;;;;;;;;;;22.69;60.79;101726.88;5141608;27;19916;-62
2023/06/16 04:09:41;;;;;;;;;;;;;;;22.81;61.15;101732.19;5141572;27;19935;-63
2023/06/16 04:12:07;;;;;;;;;;;;;;;22.76;60.85;101731.06;5144211;27;19919;-62
2023/06/16 04:14:34;;;;;;;;;;;;;;;22.71;61.46;101733.75;5138426;27;20409;-62
2023/06/16 04:17:01;;;;;;;;;;;;;;;22.55;62.27;101734.63;5143437;27;19923;-63
2023/06/16 04:19:28;;;;;;;;;;;;;;;22.55;62.17;101735.47;5143700;27;19945;-62
2023/06/16 04:21:53;;;;;;;;;;;;;;;22.70;62.25;101733.97;5144659;27;19920;-63
2023/06/16 04:24:21;;;;;;;;;;;;;;;22.55;62.66;101740.94;5145532;27;20357;-62
2023/06/16 04:26:49;;;;;;;;;;;;;;;22.53;63.08;101743.09;5138939;27;19924;-62
2023/06/16 04:29:15;;;;;;;;;;;;;;;22.55;63.15;101743.66;5141192;27;19937;-62
2023/06/16 04:31:43;;;;;;;;;;;;;;;22.59;62.93;101742.06;5139461;27;19926;-64
2023/06/16 04:34:10;;;;;;;;;;;;;;;22.78;62.52;101739.00;5137578;27;19919;-62
2023/06/16 04:36:44;;;;;;;;;;;;;;;22.80;61.92;101736.84;5138612;27;19947;-63
2023/06/16 04:39:22;;;;;;;;;;;;;;;22.87;61.72;101742.09;5138317;27;19912;-64
2023/06/16 04:41:48;;;;;;;;;;;;;;;22.87;61.84;101745.63;5143794;27;19927;-63
2023/06/16 04:44:13;;;;;;;;;;;;;;;22.93;60.89;101741.06;5138123;27;19926;-63
2023/06/16 04:46:39;;;;;;;;;;;;;;;22.98;60.09;101746.56;5145051;27;19994;-63
2023/06/16 04:49:05;;;;;;;;;;;;;;;22.94;59.90;101755.50;5138389;27;19969;-62
2023/06/16 04:51:30;;;;;;;;;;;;;;;22.88;60.31;101750.00;5141144;27;19916;-62
2023/06/16 04:53:56;;;;;;;;;;;;;;;22.85;60.21;101745.06;5142821;27;19922;-63
2023/06/16 04:56:22;;;;;;;;;;;;;;;22.91;59.80;101748.66;5135536;28;19988;-63
2023/06/16 04:58:47;;;;;;;;;;;;;;;22.90;59.54;101747.84;5139585;27;19924;-63
2023/06/16 05:01:13;;;;;;;;;;;;;;;22.94;59.28;101748.16;5139018;27;19934;-63
2023/06/16 05:03:38;;;;;;;;;;;;;;;22.95;58.84;101746.22;5135545;28;19975;-63
2023/06/16 05:06:04;;;;;;;;;;;;;;;22.99;59.38;101750.13;5119093;28;19940;-63
2023/06/16 05:08:30;;;;;;;;;;;;;;;23.05;59.09;101760.81;5136140;28;19915;-63
2023/06/16 05:10:56;;;;;;;;;;;;;;;23.10;58.61;101756.50;5137857;27;19923;-63
2023/06/16 05:13:21;;;;;;;;;;;;;;;23.09;58.39;101750.22;5140902;27;19916;-63
2023/06/16 05:15:46;;;;;;;;;;;;;;;23.11;58.69;101748.03;5135909;28;19924;-63
2023/06/16 05:18:12;;;;;;;;;;;;;;;23.21;58.38;101752.78;5135947;28;19908;-64
2023/06/16 05:20:37;;;;;;;;;;;;;;;23.09;58.61;101754.84;5141624;27;19995;-64
2023/06/16 05:23:03;;;;;;;;;;;;;;;23.33;57.10;101755.38;5138159;27;19942;-63
2023/06/16 05:25:29;;;;;;;;;;;;;;;23.36;56.66;101754.03;5137945;27;19972;-63
2023/06/16 05:27:55;;;;;;;;;;;;;;;23.52;56.31;101757.69;5144164;27;19916;-64
2023/06/16 05:30:20;;;;;;;;;;;;;;;23.49;55.99;101759.03;5143494;27;19923;-63
2023/06/16 05:32:46;;;;;;;;;;;;;;;23.64;55.87;101761.06;5146545;27;19915;-64
2023/06/16 05:35:12;;;;;;;;;;;;;;;23.70;55.43;101764.66;5141850;27;19920;-64
2023/06/16 05:37:38;;;;;;;;;;;;;;;23.96;54.36;101760.19;5145037;27;19999;-64
2023/06/16 05:40:04;;;;;;;;;;;;;;;24.23;52.20;101762.00;5148290;27;19927;-63
2023/06/16 05:42:33;;;;;;;;;;;;;;;24.38;52.66;101766.72;5142191;27;19919;-64
2023/06/16 05:44:59;;;;;;;;;;;;;;;24.47;52.83;101765.13;5140339;27;19919;-64
2023/06/16 05:47:25;;;;;;;;;;;;;;;24.45;52.91;101769.22;5136997;27;20011;-64
2023/06/16 05:49:56;;;;;;;;;;;;;;;24.46;52.16;101782.63;5143720;27;19927;-64
2023/06/16 05:52:22;;;;;;;;;;;;;;;24.52;52.52;101777.19;5142248;27;19996;-64
2023/06/16 05:54:47;;;;;;;;;;;;;;;24.59;51.83;101780.47;5141358;27;19916;-65
2023/06/16 05:57:21;;;;;;;;;;;;;;;24.71;50.76;101778.34;5145628;27;19949;-63
2023/06/16 05:59:48;;;;;;;;;;;;;;;24.74;49.52;101788.75;5146430;27;19967;-61
2023/06/16 06:02:14;;;;;;;;;;;;;;;24.85;49.58;101780.59;5147242;27;19920;-64
2023/06/16 06:04:42;;;;;;;;;;;;;;;24.81;50.17;101783.06;5143981;27;19923;-62
2023/06/16 06:07:08;;;;;;;;;;;;;;;24.76;50.01;101786.59;5145461;27;19943;-64
2023/06/16 06:09:33;;;;;;;;;;;;;;;24.80;50.79;101789.63;5144859;27;19915;-63
2023/06/16 06:11:59;;;;;;;;;;;;;;;24.76;50.93;101789.31;5139276;27;19945;-63
2023/06/16 06:14:24;;;;;;;;;;;;;;;24.79;48.98;101792.59;5142514;27;19919;-63
2023/06/16 06:16:50;;;;;;;;;;;;;;;24.89;50.30;101790.72;5144907;27;19939;-63
2023/06/16 06:19:17;;;;;;;;;;;;;;;24.94;49.05;101789.09;5145944;27;19947;-63
2023/06/16 06:21:43;;;;;;;;;;;;;;;25.04;49.27;101792.66;5145114;27;19930;-64
2023/06/16 06:24:10;;;;;;;;;;;;;;;25.03;49.30;101792.97;5145634;27;19971;-63
2023/06/16 06:26:38;;;;;;;;;;;;;;;24.89;49.02;101796.19;5144002;27;19979;-63
2023/06/16 06:29:04;;;;;;;;;;;;;;;25.03;49.61;101796.50;5143456;27;19962;-63
2023/06/16 06:31:30;;;;;;;;;;;;;;;25.23;48.86;101800.38;5146735;27;19915;-63
2023/06/16 06:33:56;;;;;;;;;;;;;;;25.31;48.51;101801.75;5141346;27;20427;-63
2023/06/16 06:36:27;;;;;;;;;;;;;;;25.35;50.23;101803.66;5146698;27;19987;-64
2023/06/16 06:38:55;;;;;;;;;;;;;;;25.46;49.56;101806.41;5137120;27;19926;-63
2023/06/16 06:41:22;;;;;;;;;;;;;;;25.45;49.50;101805.56;5139322;27;19916;-63
2023/06/16 06:43:49;;;;;;;;;;;;;;;25.53;49.58;101804.25;5146279;27;19920;-64
2023/06/16 06:46:17;;;;;;;;;;;;;;;25.61;48.62;101806.44;5144007;27;19915;-64
2023/06/16 06:48:43;;;;;;;;;;;;;;;25.81;48.76;101809.44;5139097;27;19946;-63
2023/06/16 06:51:13;;;;;;;;;;;;;;;25.85;47.85;101808.63;5145478;27;19937;-63
2023/06/16 06:53:39;;;;;;;;;;;;;;;25.59;48.18;101811.34;5140298;27;19916;-63
2023/06/16 06:56:05;;;;;;;;;;;;;;;25.67;48.03;101809.19;5140716;27;19937;-63
2023/06/16 06:58:31;;;;;;;;;;;;;;;25.94;47.47;101813.53;5143081;27;19916;-63
2023/06/16 07:00:57;;;;;;;;;;;;;;;26.01;47.74;101808.56;5144514;27;19929;-64
2023/06/16 07:03:23;;;;;;;;;;;;;;;26.19;47.12;101818.19;5141333;27;19923;-63
2023/06/16 07:05:48;;;;;;;;;;;;;;;26.20;47.66;101814.34;5141230;27;19923;-63
2023/06/16 07:08:13;;;;;;;;;;;;;;;26.35;47.71;101810.72;5145228;27;20392;-63
2023/06/16 07:10:39;;;;;;;;;;;;;;;26.38;47.29;101812.06;5141287;27;19920;-63
2023/06/16 07:13:08;;;;;;;;;;;;;;;26.52;46.07;101812.28;5143230;27;19915;-64
2023/06/16 07:15:34;;;;;;;;;;;;;;;26.51;46.22;101813.41;5142854;27;19975;-63
2023/06/16 07:17:59;;;;;;;;;;;;;;;26.49;46.78;101811.75;5144352;27;19916;-63
2023/06/16 07:20:25;;;;;;;;;;;;;;;26.78;45.88;101815.75;5143584;27;19915;-63
2023/06/16 07:22:50;;;;;;;;;;;;;;;26.84;45.67;101822.03;5140010;27;19959;-63
2023/06/16 07:25:16;;;;;;;;;;;;;;;26.84;45.02;101825.59;5142327;27;19923;-64
2023/06/16 07:27:43;;;;;;;;;;;;;;;26.91;45.00;101819.81;5142259;28;19941;-64
2023/06/16 07:30:08;;;;;;;;;;;;;;;27.01;44.57;101825.28;5142724;27;19931;-64
2023/06/16 07:32:35;;;;;;;;;;;;;;;27.09;43.27;101825.78;5138098;28;19915;-63
2023/06/16 07:35:01;;;;;;;;;;;;;;;27.25;42.73;101819.06;5136070;28;19924;-64
2023/06/16 07:37:26;;;;;;;;;;;;;;;27.32;45.59;101814.06;5139715;28;19960;-63
2023/06/16 07:39:52;;;;;;;;;;;;;;;27.36;45.62;101819.81;5137197;28;19927;-64
2023/06/16 07:42:17;;;;;;;;;;;;;;;27.36;42.61;101822.56;5141803;28;19947;-64
2023/06/16 07:44:43;;;;;;;;;;;;;;;27.42;42.38;101812.34;5136806;28;19920;-63
2023/06/16 07:47:08;;;;;;;;;;;;;;;27.51;41.82;101823.53;5144256;28;19979;-63
2023/06/16 07:49:33;;;;;;;;;;;;;;;27.57;41.09;101815.00;5144056;28;19915;-64
2023/06/16 07:51:59;;;;;;;;;;;;;;;27.53;41.38;101822.19;5145037;28;19960;-64
2023/06/16 07:54:25;;;;;;;;;;;;;;;27.71;40.79;101826.16;5141407;28;19916;-63
2023/06/16 07:56:50;;;;;;;;;;;;;;;27.94;40.82;101826.47;5140528;28;19912;-63
2023/06/16 07:59:16;;;;;;;;;;;;;;;28.07;40.65;101819.47;5140199;28;19988;-63
2023/06/16 08:01:44;;;;;;;;;;;;;;;28.12;39.81;101819.41;5142890;28;20018;-64
2023/06/16 08:04:10;;;;;;;;;;;;;;;28.19;40.41;101819.94;5142590;28;19911;-63
2023/06/16 08:06:36;;;;;;;;;;;;;;;28.05;40.59;101819.78;5140315;28;19920;-63
2023/06/16 08:09:03;;;;;;;;;;;;;;;28.27;39.94;101820.41;5142002;28;19923;-63
2023/06/16 08:11:29;;;;;;;;;;;;;;;28.30;39.39;101825.31;5141959;28;19924;-63
2023/06/16 08:13:55;;;;;;;;;;;;;;;28.37;39.24;101817.50;5142726;28;19916;-64
2023/06/16 08:16:20;;;;;;;;;;;;;;;28.43;38.97;101818.28;5147102;28;19920;-64
2023/06/16 08:18:45;;;;;;;;;;;;;;;28.56;38.53;101814.00;5139444;28;19919;-64
2023/06/16 08:21:11;;;;;;;;;;;;;;;28.58;39.12;101820.00;5140625;28;19917;-65
2023/06/16 08:23:37;;;;;;;;;;;;;;;28.68;38.24;101819.91;5141921;28;19927;-64
2023/06/16 08:26:04;;;;;;;;;;;;;;;28.78;38.73;101818.94;5142410;28;19919;-64
2023/06/16 08:28:30;;;;;;;;;;;;;;;28.83;38.04;101818.91;5145208;27;19987;-64
2023/06/16 08:30:55;;;;;;;;;;;;;;;28.86;37.74;101815.56;5141433;28;19916;-64
2023/06/16 08:33:20;;;;;;;;;;;;;;;28.80;38.38;101815.91;5148124;27;19979;-63
2023/06/16 08:35:46;;;;;;;;;;;;;;;28.93;37.82;101820.69;5145312;27;19915;-63
2023/06/16 08:38:11;;;;;;;;;;;;;;;28.48;38.01;101819.03;5146623;27;19916;-64
2023/06/16 08:40:37;;;;;;;;;;;;;;;28.74;37.52;101820.66;5146713;27;19922;-64
2023/06/16 08:43:05;;;;;;;;;;;;;;;28.97;37.08;101818.16;5145527;27;19920;-63
2023/06/16 08:45:30;;;;;;;;;;;;;;;29.31;36.02;101822.59;5141559;27;19971;-64
2023/06/16 08:47:56;;;;;;;;;;;;;;;29.41;35.99;101819.72;5141583;27;19938;-65
2023/06/16 08:50:23;;;;;;;;;;;;;;;29.26;35.64;101814.44;5142719;27;19933;-65
2023/06/16 08:52:48;;;;;;;;;;;;;;;29.31;34.83;101817.94;5144977;27;19974;-64
2023/06/16 08:55:14;;;;;;;;;;;;;;;29.61;35.34;101810.28;5145837;27;19968;-64
2023/06/16 08:57:53;;;;;;;;;;;;;;;29.57;34.02;101811.19;5141702;27;19916;-64
2023/06/16 09:00:18;;;;;;;;;;;;;;;29.42;34.40;101806.75;5143931;27;19926;-64
2023/06/16 09:02:55;;;;;;;;;;;;;;;29.47;34.36;101806.66;5145090;27;19919;-65
2023/06/16 09:05:21;;;;;;;;;;;;;;;29.44;34.40;101807.28;5139902;27;19930;-64
2023/06/16 09:07:47;;;;;;;;;;;;;;;29.96;34.44;101800.84;5136605;27;19916;-64
2023/06/16 09:10:12;;;;;;;;;;;;;;;30.11;34.93;101811.63;5136424;28;19916;-64
2023/06/16 09:12:38;;;;;;;;;;;;;;;29.94;35.24;101814.13;5136190;28;19920;-65
2023/06/16 09:15:10;;;;;;;;;;;;;;;30.11;34.26;101808.84;5137593;27;19965;-64
2023/06/16 09:17:37;;;;;;;;;;;;;;;30.07;35.17;101810.59;5141529;27;19916;-64
2023/06/16 09:20:06;;;;;;;;;;;;;;;30.16;33.63;101817.03;5141233;27;19916;-65
2023/06/16 09:22:32;;;;;;;;;;;;;;;30.45;33.63;101815.09;5139550;27;19926;-64
2023/06/16 09:25:03;;;;;;;;;;;;;;;30.30;34.13;101817.03;5139723;27;19927;-64
2023/06/16 09:27:44;;;;;;;;;;;;;;;30.58;33.92;101821.69;5135721;28;19951;-64
2023/06/16 09:30:11;;;;;;;;;;;;;;;30.60;33.72;101820.28;5136301;28;19916;-65
2023/06/16 09:32:39;;;;;;;;;;;;;;;30.68;32.97;101820.69;5143855;27;19950;-63
2023/06/16 09:35:18;;;;;;;;;;;;;;;30.93;32.23;101818.50;5142806;27;19915;-64
2023/06/16 09:37:44;;;;;;;;;;;;;;;30.94;32.11;101811.84;5143797;27;19979;-64
2023/06/16 09:40:11;;;;;;;;;;;;;;;31.08;30.64;101831.13;5147477;27;19920;-64
2023/06/16 09:42:37;;;;;;;;;;;;;;;31.16;30.31;101822.09;5146789;27;19919;-64
2023/06/16 09:45:08;;;;;;;;;;;;;;;31.88;31.27;101814.81;5147544;27;19933;-65
2023/06/16 09:47:36;;;;;;;;;;;;;;;32.23;30.31;101808.59;5146565;27;19919;-65
2023/06/16 09:50:01;;;;;;;;;;;;;;;33.04;29.53;101813.94;5138851;27;19911;-65
2023/06/16 09:52:27;;;;;;;;;;;;;;;33.42;28.98;101817.97;5143503;27;19975;-64
2023/06/16 09:54:53;;;;;;;;;;;;;;;33.88;29.20;101818.38;5140860;27;20384;-64
2023/06/16 09:57:19;;;;;;;;;;;;;;;34.27;27.61;101815.59;5142229;27;19996;-65
2023/06/16 09:59:45;;;;;;;;;;;;;;;35.06;26.52;101817.03;5141284;27;19915;-65
2023/06/16 10:02:12;;;;;;;;;;;;;;;35.74;26.97;101818.66;5143673;27;19992;-64
2023/06/16 10:04:38;;;;;;;;;;;;;;;36.06;26.55;101816.16;5141968;27;19923;-65
2023/06/16 10:07:06;;;;;;;;;;;;;;;36.39;27.51;101814.41;5138784;27;19919;-65
2023/06/16 10:09:33;;;;;;;;;;;;;;;37.06;25.55;101816.81;5135882;27;19911;-65
2023/06/16 10:12:00;;;;;;;;;;;;;;;37.58;24.65;101811.44;5137501;27;19962;-65
2023/06/16 10:14:27;;;;;;;;;;;;;;;37.90;24.71;101810.63;5137394;27;19927;-65
2023/06/16 10:16:54;;;;;;;;;;;;;;;38.04;25.27;101815.75;5137394;27;19920;-64
2023/06/16 10:19:21;;;;;;;;;;;;;;;38.66;24.27;101810.38;5136060;27;19947;-65
2023/06/16 10:21:49;;;;;;;;;;;;;;;39.27;23.64;101824.78;5135320;27;19975;-65
2023/06/16 10:24:14;;;;;;;;;;;;;;;39.08;23.47;101820.03;5141780;27;19950;-65
2023/06/16 10:26:40;;;;;;;;;;;;;;;39.85;23.14;101820.22;5136914;27;19915;-65
2023/06/16 10:29:06;;;;;;;;;;;;;;;40.13;23.87;101815.44;5140979;27;19916;-65
2023/06/16 10:31:31;;;;;;;;;;;;;;;40.10;22.97;101819.81;5136724;27;19947;-64
2023/06/16 10:33:58;;;;;;;;;;;;;;;40.34;23.55;101817.78;5137708;27;19915;-65
2023/06/16 10:36:31;;;;;;;;;;;;;;;40.58;23.29;101810.06;5138361;27;19930;-65
2023/06/16 10:38:57;;;;;;;;;;;;;;;40.69;22.90;101808.22;5135423;28;19933;-65
2023/06/16 10:41:22;;;;;;;;;;;;;;;40.43;21.58;101806.28;5136463;27;19920;-65
2023/06/16 10:43:48;;;;;;;;;;;;;;;40.48;21.86;101805.94;5135968;27;19926;-65
2023/06/16 10:46:17;;;;;;;;;;;;;;;40.78;22.38;101799.56;5134581;27;20815;-65
2023/06/16 10:49:02;;;;;;;;;;;;;;;41.07;21.02;101807.47;5136531;27;19975;-64
2023/06/16 10:51:43;;;;;;;;;;;;;;;41.83;21.58;101797.75;5137538;27;19930;-65
2023/06/16 10:54:09;;;;;;;;;;;;;;;42.30;20.01;101800.06;5131903;28;19916;-65
2023/06/16 10:56:53;;;;;;;;;;;;;;;42.96;19.56;101806.78;5134576;28;19922;-65
2023/06/16 10:59:18;;;;;;;;;;;;;;;42.30;19.44;101800.06;5134527;27;19916;-65
2023/06/16 11:01:46;;;;;;;;;;;;;;;42.94;18.84;101784.69;5133596;27;20004;-65
2023/06/16 11:04:14;;;;;;;;;;;;;;;43.18;19.15;101787.94;5133556;28;19923;-66
2023/06/16 11:06:59;;;;;;;;;;;;;;;43.01;19.81;101792.31;5135323;27;19916;-66
2023/06/16 11:09:28;;;;;;;;;;;;;;;43.70;20.23;101789.56;5142280;27;19923;-65
2023/06/16 11:11:57;;;;;;;;;;;;;;;43.06;19.79;101791.13;5138787;27;19923;-65
2023/06/16 11:14:25;;;;;;;;;;;;;;;43.57;18.26;101791.97;5138678;27;21311;-65
2023/06/16 11:16:51;;;;;;;;;;;;;;;44.07;17.93;101791.13;5146368;27;19986;-65
2023/06/16 11:19:17;;;;;;;;;;;;;;;44.41;19.13;101796.25;5137143;28;19923;-65
2023/06/16 11:21:43;;;;;;;;;;;;;;;44.34;18.73;101787.00;5137107;28;19924;-65
2023/06/16 11:24:09;;;;;;;;;;;;;;;44.38;17.80;101791.44;5139774;27;19916;-65
2023/06/16 11:26:35;;;;;;;;;;;;;;;45.28;17.21;101785.69;5142503;27;19916;-65
2023/06/16 11:29:00;;;;;;;;;;;;;;;46.03;17.75;101781.38;5143287;28;19947;-65
2023/06/16 11:31:26;;;;;;;;;;;;;;;46.36;17.75;101792.31;5145162;28;19922;-65
2023/06/16 11:33:55;;;;;;;;;;;;;;;46.83;17.97;101788.84;5142628;27;19920;-65
2023/06/16 11:36:22;;;;;;;;;;;;;;;46.89;16.43;101787.16;5142102;28;19910;-65
2023/06/16 11:38:49;;;;;;;;;;;;;;;46.83;17.64;101791.69;5144676;27;19994;-66
2023/06/16 11:41:19;;;;;;;;;;;;;;;46.94;16.94;101789.50;5144424;28;19916;-66
2023/06/16 11:43:45;;;;;;;;;;;;;;;46.54;16.74;101783.59;5140936;28;19923;-65
2023/06/16 11:46:10;;;;;;;;;;;;;;;47.25;16.87;101786.56;5143609;28;19966;-65
2023/06/16 11:48:37;;;;;;;;;;;;;;;45.43;16.71;101780.75;5140568;27;19916;-65
2023/06/16 11:51:03;;;;;;;;;;;;;;;43.92;17.73;101778.28;5142448;28;19915;-65
2023/06/16 11:53:30;;;;;;;;;;;;;;;44.90;16.93;101781.50;5139611;28;19927;-65
2023/06/16 11:55:59;;;;;;;;;;;;;;;45.74;18.00;101775.22;5140873;28;19919;-65
2023/06/16 11:58:26;;;;;;;;;;;;;;;46.05;16.68;101769.66;5138411;28;19916;-65
2023/06/16 12:00:54;;;;;;;;;;;;;;;46.43;16.88;101771.63;5137054;28;19937;-65
2023/06/16 12:03:19;;;;;;;;;;;;;;;47.74;16.91;101776.84;5137569;28;19919;-65
2023/06/16 12:05:45;;;;;;;;;;;;;;;48.00;15.43;101767.84;5143207;27;19912;-65
2023/06/16 12:08:11;;;;;;;;;;;;;;;48.00;15.88;101773.53;5147346;27;19944;-65
2023/06/16 12:10:36;;;;;;;;;;;;;;;47.07;17.23;101769.91;5140480;27;19962;-65
2023/06/16 12:13:07;;;;;;;;;;;;;;;45.71;17.51;101759.91;5141130;27;19926;-66
2023/06/16 12:15:32;;;;;;;;;;;;;;;44.40;17.42;101755.19;5139703;27;19911;-65
2023/06/16 12:17:58;;;;;;;;;;;;;;;44.66;18.17;101757.91;5142109;27;19938;-65
2023/06/16 12:20:23;;;;;;;;;;;;;;;45.25;17.07;101751.44;5139868;27;19954;-65
2023/06/16 12:22:53;;;;;;;;;;;;;;;45.97;16.69;101751.97;5143672;27;19927;-66
2023/06/16 12:25:18;;;;;;;;;;;;;;;45.61;16.39;101743.88;5143596;27;19916;-67
2023/06/16 12:27:45;;;;;;;;;;;;;;;45.85;16.55;101744.84;5144955;27;19987;-67
2023/06/16 12:30:14;;;;;;;;;;;;;;;45.38;16.58;101745.31;5143553;27;19924;-66
2023/06/16 12:32:40;;;;;;;;;;;;;;;45.08;17.50;101741.09;5142712;27;20022;-65
2023/06/16 12:35:08;;;;;;;;;;;;;;;46.34;17.96;101747.47;5143842;27;19933;-66